Create Tblcommutelog Verified Points Advance Search
| # | Trip ID | Id Commuter | Trip Date | Trip Num | Current Lat | Current Lng | Delta Distance | Current Time | Activity | Activity Confidence | Current Speed | |
|---|---|---|---|---|---|---|---|---|---|---|---|---|
| 71581 | 260106_782322_16504834_0647 | 782322 | (not set) | (not set) | 39.168830703615 | -77.265862845612 | 0.9666 | 2026-01-06 06:57:33 | unknown | 100 | 7.0721610771858 | |
| 71582 | 260106_739501_16500693_0657 | 739501 | (not set) | (not set) | 38.8063917557 | -77.062198132908 | 0 | 2026-01-06 06:57:32 | still | 33 | 0 | |
| 71583 | 260106_788116_16505268_0623 | 788116 | (not set) | (not set) | 38.858575078525 | -77.365120130736 | 21.7817 | 2026-01-06 06:57:33 | unknown | 100 | 14.957933605729 | |
| 71584 | 260106_786132_16505268_0628 | 786132 | (not set) | (not set) | 38.793506283333 | -77.0211888 | 29.7153 | 2026-01-06 06:57:34 | in_vehicle | 100 | 11.980652140871 | |
| 71585 | 260106_746083_16423284_0637 | 746083 | (not set) | (not set) | 38.807393046508 | -77.101136113382 | 9.6117 | 2026-01-06 06:57:34 | unknown | 100 | 13.710694073154 | |
| 71586 | 260106_787968_16505268_0628 | 787968 | (not set) | (not set) | 38.793560685045 | -77.020892485609 | 29.7579 | 2026-01-06 06:57:35 | in_vehicle | 100 | 12.011944889 | |
| 71587 | 260106_782322_16504834_0647 | 782322 | (not set) | (not set) | 39.168527909975 | -77.265685953953 | 0.9895 | 2026-01-06 06:57:35 | unknown | 100 | 7.7293087878978 | |
| 71588 | 260106_762140_16491788_0624 | 762140 | (not set) | (not set) | 38.718733310387 | -77.211628392563 | 32.1315 | 2026-01-06 06:57:36 | in_vehicle | 100 | 15.136749309324 | |
| 71589 | 260106_714319_16514952_0653 | 714319 | (not set) | (not set) | 38.786926043114 | -77.2919031636 | 1.9783 | 2026-01-06 06:57:37 | in_vehicle | 100 | 6.19149373698 | |
| 71590 | 260106_669170_16500693_0657 | 669170 | (not set) | (not set) | 39.323976285012 | -77.695667408703 | 0.23 | 2026-01-06 06:57:37 | in_vehicle | 100 | 7.0676906845959 | |
| 71591 | 260106_788956_16505268_0630 | 788956 | (not set) | (not set) | 38.858949209767 | -77.363229431212 | 19.8997 | 2026-01-06 06:57:38 | in_vehicle | 100 | 14.805940257673 | |
| 71592 | 260106_788537_16416993_0653 | 788537 | (not set) | (not set) | 39.074927732299 | -76.709460138263 | 1.6413 | 2026-01-06 06:57:39 | in_vehicle | 100 | 8.7709102613392 | |
| 71593 | 260106_757722_16502878_0611 | 757722 | (not set) | (not set) | 38.846132608012 | -77.433541404827 | 14.7407 | 2026-01-06 06:57:40 | unknown | 100 | 12.75850045151 | |
| 71594 | 260106_757722_16502878_0611 | 757722 | (not set) | (not set) | 38.846132608012 | -77.433541404827 | 14.7407 | 2026-01-06 06:57:40 | unknown | 100 | 12.75850045151 | |
| 71595 | 260106_757722_16502878_0611 | 757722 | (not set) | (not set) | 38.846132608012 | -77.433541404827 | 14.7407 | 2026-01-06 06:57:40 | unknown | 100 | 12.75850045151 | |
| 71596 | 260106_784815_16448780_0634 | 784815 | (not set) | (not set) | 38.918101602434 | -76.953210375336 | 16.9311 | 2026-01-06 06:57:41 | in_vehicle | 100 | -0.44703925898772 | |
| 71597 | 260106_788423_16505268_0628 | 788423 | (not set) | (not set) | 38.793953937703 | -77.01910158654 | 29.7949 | 2026-01-06 06:57:41 | in_vehicle | 100 | 12.253346088854 | |
| 71598 | 260106_780343_6428227_0622 | 780343 | (not set) | (not set) | 39.14812698588 | -77.216643045018 | 14.8075 | 2026-01-06 06:57:42 | in_vehicle | 100 | 5.0113100932524 | |
| 71599 | 260106_783292_6437402_0631 | 783292 | (not set) | (not set) | 38.892269072147 | -77.02885220071 | 12.096 | 2026-01-06 06:57:41 | in_vehicle | 100 | -0.44703925898772 | |
| 71600 | 260106_783292_6437402_0631 | 783292 | (not set) | (not set) | 38.892269072147 | -77.02885220071 | 12.096 | 2026-01-06 06:57:41 | in_vehicle | 100 | -0.44703925898772 |